Vining, Minnesota
Current Conditions -  °F | °C
As of 6:35 AM on Friday 31 Oct 2014 (Local Time) from KADC Reporting Station
Clear Clear  
Wind Chill: 16°   Ceiling: Unl
Heat Index: 16°   Visibility: 10mi
Dew Point: 14°   Wind: 3mph
Humidity: 93%   Direction: 330°NNW
Pressure: 30.54"   Gusts: NA
Location:  46.26°N, 95.54°W
Report Text: KADC 311135Z AUTO 33003KT 10SM CLR M09/M10 A3054 RMK AO2
Loading
Personal Weather Stations






























Interactive Weather Map
Tropical Storm Tracking
New forecast layout! Learn more

10-Day Weather Forecast

Advertisements
Track Severe Weather on mobile